KORD/ORD METAR and TAF weather

Enter ICAO airport designator
Station Type Date Time Source
KORD METAR 2020/07/09 22:51 UTC NOAA

KORD 092251Z 17012G18KT 10SM SCT048 SCT100 BKN250 33/22 A2975 RMK AO2 LTG DSNT NW SLP068 CB DSNT NW T03280222


Station Type Date Time Source
KORD Decoded METAR 2020/07/09 22:51 UTC NOAA

CHICAGO O'HARE INTERNATIONAL, IL, United States (KORD) 41-59N 087-55W 200M
Jul 09, 2020 - 06:51 PM EDT / 2020.07.09 2251 UTC
Wind: from the S (170 degrees) at 14 MPH (12 KT) gusting to 21 MPH (18 KT):0
Visibility: 10 mile(s):0
Sky conditions: mostly cloudy
Weather: Cumulonimbus clouds, lightning observed
Temperature: 91.0 F (32.8 C)
Heat index: 98.1 F (36.7 C):1
Dew Point: 72.0 F (22.2 C)
Relative Humidity: 53%
Pressure (altimeter): 29.75 in. Hg (1007 hPa)
ob: KORD 092251Z 17012G18KT 10SM SCT048 SCT100 BKN250 33/22 A2975 RMK AO2 LTG DSNT NW SLP068 CB DSNT NW T03280222
cycle: 23

Station Type Date Time Source
KORD TAF 2020/07/09 21:06 UTC NOAA

TAF
AMD KORD 092104Z 0921/1024 19012G20KT P6SM VCTS BKN050CB
FM100000 18010KT P6SM VCTS BKN050CB
TEMPO 1001/1005 VRB25G35KT 2SM +TSRA BKN025 OVC050CB
FM100500 VRB04KT P6SM VCSH BKN050 OVC100
FM101000 33007KT P6SM SCT025 BKN050

Example: see airport list